createdAt,value
2023-05-02T00:02:31.597Z,10.54
2023-05-02T00:05:35.116Z,10.52
2023-05-02T00:08:38.100Z,10.48
2023-05-02T00:11:40.810Z,10.47
2023-05-02T00:14:43.631Z,10.39
2023-05-02T00:17:46.269Z,10.33
2023-05-02T00:20:49.128Z,10.24
2023-05-02T00:23:52.297Z,10.20
2023-05-02T00:26:55.136Z,10.21
2023-05-02T00:29:58.984Z,10.21
2023-05-02T00:33:02.110Z,10.16
2023-05-02T00:36:04.951Z,10.09
2023-05-02T00:39:08.080Z,10.09
2023-05-02T00:42:11.380Z,10.18
2023-05-02T00:45:14.222Z,10.18
2023-05-02T00:48:18.304Z,10.16
2023-05-02T00:51:21.108Z,10.13
2023-05-02T00:54:23.841Z,10.09
2023-05-02T00:57:26.715Z,10.05
2023-05-02T01:00:55.915Z,10.01
2023-05-02T01:04:11.457Z,10.00
2023-05-02T01:07:29.028Z,9.96
2023-05-02T01:10:53.512Z,9.92
2023-05-02T01:13:57.526Z,9.98
2023-05-02T01:17:04.912Z,9.96
2023-05-02T01:20:12.630Z,9.94
2023-05-02T01:23:29.482Z,9.85
2023-05-02T01:26:53.357Z,9.87
2023-05-02T01:29:58.391Z,9.85
2023-05-02T01:33:03.190Z,9.79
2023-05-02T01:36:06.737Z,9.74
2023-05-02T01:39:12.320Z,9.63
2023-05-02T01:42:15.741Z,9.55
2023-05-02T01:45:20.089Z,9.53
2023-05-02T01:48:23.799Z,9.46
2023-05-02T01:51:32.302Z,9.38
2023-05-02T01:54:35.720Z,9.33
2023-05-02T01:57:41.209Z,9.30
2023-05-02T02:00:46.019Z,9.36
2023-05-02T02:03:48.957Z,9.41
2023-05-02T02:06:56.400Z,9.44
2023-05-02T02:09:59.334Z,9.30
2023-05-02T02:13:08.406Z,9.38
2023-05-02T02:16:13.452Z,9.29
2023-05-02T02:19:16.285Z,9.30
2023-05-02T02:22:20.602Z,9.35
2023-05-02T02:25:23.820Z,9.39
2023-05-02T02:28:26.616Z,9.37
2023-05-02T02:31:36.011Z,9.41
2023-05-02T02:34:38.859Z,9.29
2023-05-02T02:37:49.411Z,9.30
2023-05-02T02:40:55.007Z,9.33
2023-05-02T02:44:01.876Z,9.31
2023-05-02T02:47:04.549Z,9.12
2023-05-02T02:50:41.834Z,9.27
2023-05-02T02:54:22.996Z,9.22
2023-05-02T02:57:41.686Z,9.28
2023-05-02T03:00:45.412Z,9.26
2023-05-02T03:03:49.449Z,9.23
2023-05-02T03:06:52.415Z,9.17
2023-05-02T03:09:55.418Z,9.20
2023-05-02T03:13:00.344Z,9.14
2023-05-02T03:16:40.784Z,9.12
2023-05-02T03:19:48.353Z,9.13
2023-05-02T03:22:51.329Z,9.07
2023-05-02T03:25:53.993Z,9.11
2023-05-02T03:29:00.108Z,9.20
2023-05-02T03:32:09.583Z,9.20
2023-05-02T03:35:14.089Z,9.11
2023-05-02T03:38:20.198Z,9.06
2023-05-02T03:41:27.928Z,9.09
2023-05-02T03:44:37.663Z,9.05
2023-05-02T03:47:40.962Z,9.02
2023-05-02T03:50:44.223Z,9.07
2023-05-02T03:53:47.327Z,9.12
2023-05-02T03:56:50.067Z,9.15
2023-05-02T04:00:01.230Z,9.19
2023-05-02T04:03:14.240Z,9.22
2023-05-02T04:06:20.273Z,9.37
2023-05-02T04:09:29.241Z,9.48
2023-05-02T04:12:37.765Z,9.69
2023-05-02T04:15:41.235Z,9.91
2023-05-02T04:18:44.676Z,9.92
2023-05-02T04:21:48.637Z,10.01
2023-05-02T04:24:52.160Z,9.97
2023-05-02T04:27:55.090Z,10.02
2023-05-02T04:31:00.030Z,10.01
2023-05-02T04:34:04.864Z,10.15
2023-05-02T04:37:13.020Z,10.37
2023-05-02T04:40:17.787Z,10.75
2023-05-02T04:43:24.560Z,11.06
2023-05-02T04:46:33.097Z,11.23
2023-05-02T04:49:36.170Z,11.55
2023-05-02T04:52:39.260Z,11.80
2023-05-02T04:55:45.416Z,11.88
2023-05-02T04:58:48.343Z,12.09
2023-05-02T05:01:51.457Z,12.42
2023-05-02T05:04:54.538Z,12.59
2023-05-02T05:07:57.342Z,12.68
2023-05-02T05:11:02.464Z,12.87
2023-05-02T05:14:06.075Z,13.12
2023-05-02T05:17:12.861Z,13.35
2023-05-02T05:20:16.250Z,13.58
2023-05-02T05:23:19.500Z,13.88
2023-05-02T05:26:22.662Z,14.11
2023-05-02T05:29:25.715Z,14.47
2023-05-02T05:32:30.360Z,15.04
2023-05-02T05:35:33.224Z,15.53
2023-05-02T05:38:38.079Z,15.90
2023-05-02T05:41:41.814Z,16.20
2023-05-02T05:44:46.871Z,16.48
2023-05-02T05:47:51.903Z,16.76
2023-05-02T05:50:55.124Z,17.05
2023-05-02T05:53:58.066Z,17.31
2023-05-02T05:57:01.338Z,17.63
2023-05-02T06:00:05.113Z,17.92
2023-05-02T06:03:18.292Z,18.23
2023-05-02T06:06:22.255Z,18.29
2023-05-02T06:09:25.116Z,18.22
2023-05-02T06:12:28.713Z,18.37
2023-05-02T06:15:34.380Z,18.23
2023-05-02T06:18:37.780Z,18.14
2023-05-02T06:21:40.660Z,18.29
2023-05-02T06:24:43.460Z,18.11
2023-05-02T06:27:46.295Z,18.53
2023-05-02T06:30:58.229Z,18.97
2023-05-02T06:34:00.964Z,18.45
2023-05-02T06:37:03.811Z,18.24
2023-05-02T06:40:07.826Z,18.69
2023-05-02T06:43:10.649Z,19.23
2023-05-02T06:46:13.413Z,19.29
2023-05-02T06:49:16.425Z,19.77
2023-05-02T06:52:19.365Z,19.87
2023-05-02T06:55:22.523Z,19.54
2023-05-02T06:58:25.456Z,18.54
2023-05-02T07:01:28.275Z,18.66
2023-05-02T07:04:31.690Z,18.52
2023-05-02T07:07:34.764Z,18.67
2023-05-02T07:10:37.818Z,18.43
2023-05-02T07:13:40.713Z,18.06
2023-05-02T07:16:43.584Z,18.05
2023-05-02T07:19:46.559Z,17.87
2023-05-02T07:22:49.432Z,17.95
2023-05-02T07:25:52.652Z,18.17
2023-05-02T07:28:55.710Z,18.49
2023-05-02T07:31:58.584Z,18.44
2023-05-02T07:35:02.163Z,18.27
2023-05-02T07:38:05.002Z,18.59
2023-05-02T07:41:08.208Z,18.38
2023-05-02T07:44:12.206Z,18.42
2023-05-02T07:47:15.177Z,17.64
2023-05-02T07:50:17.965Z,17.40
2023-05-02T07:53:20.873Z,17.05
2023-05-02T07:56:25.433Z,16.80
2023-05-02T07:59:28.210Z,16.51
2023-05-02T08:02:30.931Z,16.12
2023-05-02T08:05:33.929Z,16.06
2023-05-02T08:08:37.645Z,15.86
2023-05-02T08:11:40.533Z,15.51
2023-05-02T08:14:44.650Z,15.57
2023-05-02T08:17:47.718Z,15.50
2023-05-02T08:20:51.596Z,15.37
2023-05-02T08:23:58.907Z,15.35
2023-05-02T08:27:03.817Z,15.53
2023-05-02T08:30:10.194Z,15.58
2023-05-02T08:33:14.669Z,15.65
2023-05-02T08:36:25.057Z,15.66
2023-05-02T08:39:27.812Z,15.85
2023-05-02T08:42:34.069Z,16.38
2023-05-02T08:45:43.300Z,16.60
2023-05-02T08:48:50.129Z,16.85
2023-05-02T08:51:53.674Z,17.04
2023-05-02T08:54:58.823Z,17.04
2023-05-02T08:58:04.942Z,17.00
2023-05-02T09:01:23.325Z,16.96
2023-05-02T09:04:33.637Z,17.21
2023-05-02T09:07:52.945Z,17.24
2023-05-02T09:10:58.721Z,17.42
2023-05-02T09:14:04.711Z,17.64
2023-05-02T09:17:07.974Z,17.75
2023-05-02T09:20:16.189Z,17.76
2023-05-02T09:23:19.212Z,17.68
2023-05-02T09:26:22.952Z,17.53
2023-05-02T09:29:28.100Z,17.45
2023-05-02T09:32:49.089Z,16.98
2023-05-02T09:35:57.336Z,16.82
2023-05-02T09:39:13.901Z,16.72
2023-05-02T09:42:32.240Z,16.90
2023-05-02T09:45:35.846Z,17.00
2023-05-02T09:48:58.652Z,16.90
2023-05-02T09:52:15.680Z,17.14
2023-05-02T09:55:23.565Z,16.97
2023-05-02T09:58:26.838Z,17.05
2023-05-02T10:01:30.703Z,17.05
2023-05-02T10:04:34.923Z,17.21
2023-05-02T10:07:41.711Z,17.23
2023-05-02T10:10:59.056Z,17.42
2023-05-02T10:14:02.404Z,17.74
2023-05-02T10:17:30.533Z,17.63
2023-05-02T10:20:37.646Z,17.67
2023-05-02T10:23:45.968Z,17.64
2023-05-02T10:26:48.929Z,17.62
2023-05-02T10:29:52.361Z,17.80
2023-05-02T10:32:55.565Z,17.92
2023-05-02T10:35:59.068Z,18.02
2023-05-02T10:39:02.280Z,18.51
2023-05-02T10:42:05.145Z,18.71
2023-05-02T10:45:32.312Z,18.81
2023-05-02T10:48:37.448Z,19.42
2023-05-02T10:51:42.611Z,19.21
2023-05-02T10:54:45.734Z,19.29
2023-05-02T10:58:02.751Z,19.46
2023-05-02T11:01:27.587Z,19.98
2023-05-02T11:05:06.042Z,20.05
2023-05-02T11:08:22.985Z,20.29
2023-05-02T11:11:46.805Z,20.29
2023-05-02T11:14:50.085Z,20.32
2023-05-02T11:18:14.830Z,20.29
2023-05-02T11:21:31.619Z,20.04
2023-05-02T11:24:41.827Z,19.69
2023-05-02T11:27:46.606Z,19.69
2023-05-02T11:30:51.242Z,20.06
2023-05-02T11:34:04.257Z,19.79
2023-05-02T11:37:14.885Z,20.39
2023-05-02T11:40:18.028Z,20.52
2023-05-02T11:43:22.356Z,20.14
2023-05-02T11:46:25.232Z,20.17
2023-05-02T11:49:28.355Z,20.08
2023-05-02T11:52:41.489Z,19.90
2023-05-02T11:55:55.895Z,19.52
2023-05-02T11:59:03.621Z,19.72
2023-05-02T12:02:07.953Z,19.45
2023-05-02T12:05:12.654Z,19.49
2023-05-02T12:08:26.997Z,19.30
2023-05-02T12:11:30.905Z,19.18
2023-05-02T12:14:34.147Z,19.21
2023-05-02T12:17:41.642Z,19.04
2023-05-02T12:20:45.378Z,19.17
2023-05-02T12:23:48.174Z,19.37
2023-05-02T12:26:53.121Z,19.27
2023-05-02T12:29:57.801Z,19.04
2023-05-02T12:33:03.299Z,19.00
2023-05-02T12:36:09.958Z,19.13
2023-05-02T12:39:13.023Z,19.03
2023-05-02T12:42:18.531Z,19.32
2023-05-02T12:45:21.413Z,19.27
2023-05-02T12:48:28.331Z,19.26
2023-05-02T12:51:33.186Z,19.21
2023-05-02T12:54:36.229Z,19.27
2023-05-02T12:57:39.223Z,19.50
2023-05-02T13:00:44.813Z,19.52
2023-05-02T13:03:51.879Z,20.05
2023-05-02T13:06:55.190Z,19.77
2023-05-02T13:09:58.103Z,19.31
2023-05-02T13:13:01.490Z,19.67
2023-05-02T13:16:04.925Z,19.10
2023-05-02T13:19:08.698Z,19.02
2023-05-02T13:22:15.263Z,19.41
2023-05-02T13:25:18.335Z,19.52
2023-05-02T13:28:21.211Z,19.83
2023-05-02T13:31:24.171Z,19.49
2023-05-02T13:34:27.205Z,19.41
2023-05-02T13:37:30.223Z,19.25
2023-05-02T13:40:33.200Z,19.61
2023-05-02T13:43:36.053Z,19.00
2023-05-02T13:46:39.389Z,19.03
2023-05-02T13:49:42.534Z,18.79
2023-05-02T13:52:47.723Z,18.93
2023-05-02T13:55:52.015Z,18.73
2023-05-02T13:58:54.880Z,18.87
2023-05-02T14:01:57.891Z,18.64
2023-05-02T14:05:00.771Z,19.14
2023-05-02T14:08:04.640Z,18.75
2023-05-02T14:11:07.720Z,18.55
2023-05-02T14:14:12.813Z,18.58
2023-05-02T14:17:15.703Z,18.45
2023-05-02T14:20:18.676Z,18.30
2023-05-02T14:23:21.950Z,18.30
2023-05-02T14:26:24.929Z,18.46
2023-05-02T14:29:27.848Z,18.41
2023-05-02T14:32:30.930Z,18.27
2023-05-02T14:35:33.889Z,18.30
2023-05-02T14:38:37.070Z,18.20
2023-05-02T14:41:39.997Z,18.10
2023-05-02T14:44:42.912Z,18.00
2023-05-02T14:47:46.302Z,17.98
2023-05-02T14:50:49.342Z,17.88
2023-05-02T14:53:52.110Z,17.98
2023-05-02T14:56:54.899Z,17.77
2023-05-02T14:59:57.987Z,17.67
2023-05-02T15:03:02.541Z,17.60
2023-05-02T15:06:06.824Z,17.58
2023-05-02T15:09:09.873Z,17.49
2023-05-02T15:12:15.047Z,17.49
2023-05-02T15:15:20.765Z,17.39
2023-05-02T15:18:23.775Z,17.25
2023-05-02T15:21:27.305Z,17.32
2023-05-02T15:24:31.444Z,17.17
2023-05-02T15:27:34.452Z,16.85
2023-05-02T15:30:37.462Z,16.76
2023-05-02T15:33:40.894Z,16.70
2023-05-02T15:36:44.093Z,16.63
2023-05-02T15:39:47.449Z,16.72
2023-05-02T15:42:50.700Z,16.48
2023-05-02T15:45:54.514Z,16.58
2023-05-02T15:48:57.449Z,16.45
2023-05-02T15:52:01.221Z,16.55
2023-05-02T15:55:04.720Z,16.47
2023-05-02T15:58:07.636Z,16.38
2023-05-02T16:01:10.774Z,16.42
2023-05-02T16:04:13.784Z,16.38
2023-05-02T16:07:16.661Z,16.34
2023-05-02T16:10:19.600Z,16.43
2023-05-02T16:13:25.296Z,16.38
2023-05-02T16:16:28.496Z,16.27
2023-05-02T16:19:31.511Z,16.27
2023-05-02T16:22:34.511Z,16.23
2023-05-02T16:25:37.341Z,16.33
2023-05-02T16:28:40.690Z,16.23
2023-05-02T16:31:44.939Z,16.15
2023-05-02T16:34:48.580Z,16.11
2023-05-02T16:37:51.668Z,16.00
2023-05-02T16:40:54.471Z,15.94
2023-05-02T16:43:57.346Z,15.93
2023-05-02T16:47:00.533Z,15.90
2023-05-02T16:50:03.919Z,15.90
2023-05-02T16:53:07.113Z,15.95
2023-05-02T16:56:10.042Z,15.77
2023-05-02T16:59:12.871Z,15.77
2023-05-02T17:02:17.081Z,15.68
2023-05-02T17:05:21.064Z,15.72
2023-05-02T17:08:24.195Z,15.70
2023-05-02T17:11:27.296Z,15.73
2023-05-02T17:14:30.296Z,15.67
2023-05-02T17:17:33.414Z,15.64
2023-05-02T17:20:36.587Z,15.62
2023-05-02T17:23:40.031Z,15.62
2023-05-02T17:26:42.693Z,15.59
2023-05-02T17:29:46.273Z,15.59
2023-05-02T17:32:49.212Z,15.54
2023-05-02T17:35:52.917Z,15.52
2023-05-02T17:38:55.734Z,15.40
2023-05-02T17:41:58.673Z,15.44
2023-05-02T17:45:01.489Z,15.33
2023-05-02T17:48:04.480Z,15.35
2023-05-02T17:51:07.445Z,15.38
2023-05-02T17:54:10.203Z,15.32
2023-05-02T17:57:14.870Z,15.22
2023-05-02T18:00:19.200Z,15.23
2023-05-02T18:03:22.373Z,15.15
2023-05-02T18:06:25.582Z,15.15
2023-05-02T18:09:28.486Z,15.22
2023-05-02T18:12:32.658Z,15.20
2023-05-02T18:15:35.456Z,15.05
2023-05-02T18:18:38.924Z,15.10
2023-05-02T18:21:42.580Z,15.20
2023-05-02T18:24:45.450Z,15.25
2023-05-02T18:27:48.459Z,15.26
2023-05-02T18:30:51.303Z,15.30
2023-05-02T18:33:54.634Z,15.33
2023-05-02T18:36:59.976Z,15.31
2023-05-02T18:40:03.580Z,15.29
2023-05-02T18:43:06.609Z,15.26
2023-05-02T18:46:09.653Z,15.21
2023-05-02T18:49:12.761Z,15.09
2023-05-02T18:52:15.689Z,15.13
2023-05-02T18:55:19.228Z,14.73
2023-05-02T18:58:22.911Z,14.46
2023-05-02T19:01:26.479Z,14.42
2023-05-02T19:04:32.075Z,14.04
2023-05-02T19:07:36.279Z,13.99
2023-05-02T19:10:41.191Z,13.75
2023-05-02T19:13:43.955Z,13.71
2023-05-02T19:16:47.283Z,13.58
2023-05-02T19:19:51.289Z,13.48
2023-05-02T19:23:07.234Z,13.49
2023-05-02T19:26:18.193Z,13.32
2023-05-02T19:29:21.260Z,13.13
2023-05-02T19:32:25.556Z,13.02
2023-05-02T19:35:29.201Z,12.85
2023-05-02T19:38:32.162Z,12.85
2023-05-02T19:41:34.846Z,12.83
2023-05-02T19:44:38.010Z,12.76
2023-05-02T19:47:44.113Z,12.64
2023-05-02T19:50:47.155Z,12.63
2023-05-02T19:53:50.005Z,12.55
2023-05-02T19:56:52.790Z,12.53
2023-05-02T19:59:56.114Z,12.47
2023-05-02T20:02:58.909Z,12.51
2023-05-02T20:06:01.803Z,12.66
2023-05-02T20:09:04.654Z,12.68
2023-05-02T20:12:07.695Z,12.87
2023-05-02T20:15:11.873Z,12.96
2023-05-02T20:18:15.065Z,13.07
2023-05-02T20:21:17.870Z,13.06
2023-05-02T20:24:20.658Z,13.06
2023-05-02T20:27:23.712Z,13.07
2023-05-02T20:30:26.553Z,13.12
2023-05-02T20:33:43.761Z,13.03
2023-05-02T20:36:47.677Z,12.99
2023-05-02T20:39:50.671Z,12.89
2023-05-02T20:42:54.149Z,12.81
2023-05-02T20:45:57.051Z,12.71
2023-05-02T20:49:00.013Z,12.56
2023-05-02T20:52:06.196Z,12.61
2023-05-02T20:55:09.343Z,12.51
2023-05-02T20:58:13.306Z,12.40
2023-05-02T21:01:16.327Z,12.55
2023-05-02T21:04:19.543Z,12.64
2023-05-02T21:07:22.675Z,12.65
2023-05-02T21:10:28.027Z,12.55
2023-05-02T21:13:30.780Z,12.65
2023-05-02T21:16:33.597Z,12.56
2023-05-02T21:19:37.989Z,12.61
2023-05-02T21:22:42.242Z,12.56
2023-05-02T21:25:45.052Z,12.51
2023-05-02T21:28:47.690Z,12.63
2023-05-02T21:31:51.929Z,12.56
2023-05-02T21:34:55.998Z,12.78
2023-05-02T21:37:58.762Z,12.92
2023-05-02T21:41:03.373Z,13.02
2023-05-02T21:44:06.276Z,13.09
2023-05-02T21:47:09.461Z,13.11
2023-05-02T21:50:12.331Z,13.13
2023-05-02T21:53:15.140Z,13.18
2023-05-02T21:56:17.790Z,13.24
2023-05-02T21:59:20.453Z,13.22
2023-05-02T22:02:24.038Z,13.16
2023-05-02T22:05:26.804Z,13.15
2023-05-02T22:08:29.478Z,13.11
2023-05-02T22:11:32.458Z,12.96
2023-05-02T22:14:44.484Z,12.94
2023-05-02T22:17:48.703Z,12.93
2023-05-02T22:20:51.423Z,12.85
2023-05-02T22:23:56.838Z,12.89
2023-05-02T22:26:59.507Z,12.96
2023-05-02T22:30:02.706Z,12.91
2023-05-02T22:33:06.894Z,12.90
2023-05-02T22:36:09.634Z,12.90
2023-05-02T22:39:13.682Z,12.81
2023-05-02T22:42:16.390Z,12.86
2023-05-02T22:45:19.228Z,12.86
2023-05-02T22:48:22.037Z,12.85
2023-05-02T22:51:25.990Z,12.74
2023-05-02T22:54:28.745Z,12.70
2023-05-02T22:57:31.838Z,12.56
2023-05-02T23:00:34.479Z,12.61
2023-05-02T23:03:37.289Z,12.56
2023-05-02T23:06:40.034Z,12.50
2023-05-02T23:09:42.672Z,12.47
2023-05-02T23:12:45.309Z,12.38
2023-05-02T23:15:55.645Z,12.37
2023-05-02T23:18:58.457Z,12.21
2023-05-02T23:22:03.183Z,12.17
2023-05-02T23:25:07.398Z,12.16
2023-05-02T23:28:10.191Z,12.15
2023-05-02T23:31:13.151Z,12.12
2023-05-02T23:34:16.158Z,12.02
2023-05-02T23:37:18.944Z,11.90
2023-05-02T23:40:21.712Z,11.94
2023-05-02T23:43:24.559Z,11.91
2023-05-02T23:46:27.587Z,11.86
2023-05-02T23:49:30.476Z,11.92
2023-05-02T23:52:33.752Z,11.85
2023-05-02T23:55:36.713Z,11.87
2023-05-02T23:58:39.469Z,11.75
